Flight Track Log - Related Links

Times and Time Zones

All times are in EDT time to prevent confusion due to time zone crossing. See the UPS973 flight status page for this flight to view local times or setup timezone preferences in your user account.

Time Position Orientation Groundspeed Altitude Reporting Facility
EDT Latitude Longitude Course Direction KTS MPH feet Rate Location/Type
Tue 10:11:11 PM 45.7243 -122.4950 87° East 427 491 13,200  Level FlightAware ADS-B
Tue 10:11:42 PM 45.7276 -122.4080 87° East 437 503 14,900 3,344 Climbing FlightAware ADS-B
Tue 10:12:12 PM 45.7311 -122.3200 87° East 447 514 16,600 3,048 Climbing FlightAware ADS-B
Tue 10:12:45 PM 45.7349 -122.2190 87° East 462 532 18,100 2,762 Climbing FlightAware ADS-B
Tue 10:13:15 PM 45.7382 -122.1260 87° East 477 549 19,500 2,700 Climbing FlightAware ADS-B
Tue 10:13:45 PM 45.7413 -122.0310 87° East 488 562 20,800 2,656 Climbing FlightAware ADS-B
Tue 10:14:16 PM 45.7445 -121.9310 87° East 497 572 22,200 2,656 Climbing FlightAware ADS-B
Tue 10:14:46 PM 45.7475 -121.8310 88° East 507 583 23,500 2,557 Climbing FlightAware ADS-B
Tue 10:15:17 PM 45.7473 -121.7260 90° East 518 596 24,800 2,419 Climbing FlightAware ADS-B
Tue 10:15:48 PM 45.7460 -121.6200 91° East 526 605 26,000 2,262 Climbing FlightAware ADS-B
Tue 10:16:18 PM 45.7447 -121.5140 91° East 534 615 27,100 2,382 Climbing FlightAware ADS-B
Tue 10:16:56 PM 45.7435 -121.3790 91° East 533 613 28,700 2,526 Climbing FlightAware ADS-B
Tue 10:17:34 PM 45.7420 -121.2470 91° East 531 611 30,300 2,492 Climbing FlightAware ADS-B
Tue 10:18:01 PM 45.7414 -121.1510 90° East 531 611 31,400 2,200 Climbing FlightAware ADS-B
Tue 10:18:34 PM 45.7403 -121.0380 91° East 530 610 32,500 2,000 Climbing FlightAware ADS-B
Tue 10:19:04 PM 45.7392 -120.9320 91° East 529 609 33,500 1,941 Climbing FlightAware ADS-B
Tue 10:19:42 PM 45.7376 -120.8000 91° East 529 609 34,700 1,023 Climbing FlightAware ADS-B
Tue 10:20:32 PM 45.7350 -120.6270 91° East 529 609 35,000 209 Climbing FlightAware ADS-B
Tue 10:21:08 PM 45.7330 -120.5010 91° East 527 606 35,000  Level FlightAware ADS-B
Tue 10:21:44 PM 45.7320 -120.3750 91° East 525 604 35,000  Level FlightAware ADS-B
Tue 10:22:16 PM 45.7300 -120.2650 91° East 523 602 35,000  Level FlightAware ADS-B
Tue 10:22:52 PM 45.7270 -120.1410 92° East 522 601 35,000  Level FlightAware ADS-B
Tue 10:23:28 PM 45.7250 -120.0180 91° East 521 600 35,000  Level FlightAware ADS-B
Tue 10:24:04 PM 45.7220 -119.8920 92° East 521 600 35,000  Level FlightAware ADS-B
Tue 10:24:36 PM 45.7200 -119.7840 91° East 520 598 35,000  Level FlightAware ADS-B
Tue 10:25:12 PM 45.7170 -119.6590 92° East 520 598 35,000  Level FlightAware ADS-B
Tue 10:25:46 PM 45.7150 -119.5410 91° East 520 598 35,000  Level FlightAware ADS-B
Tue 10:26:24 PM 45.7110 -119.4120 92° East 521 600 35,000  Level FlightAware ADS-B
Tue 10:27:00 PM 45.7080 -119.2910 92° East 521 600 35,000  Level FlightAware ADS-B
Tue 10:27:32 PM 45.7050 -119.1790 92° East 521 600 35,000  Level FlightAware ADS-B
Tue 10:28:08 PM 45.7020 -119.0570 92° East 521 600 35,000  Level FlightAware ADS-B
Tue 10:28:44 PM 45.7000 -118.9310 91° East 523 602 35,000  Level FlightAware ADS-B
Tue 10:29:20 PM 45.7050 -118.8110 87° East 524 603 35,000  Level FlightAware ADS-B
Tue 10:29:50 PM 45.7110 -118.7040 85° East 524 603 35,000  Level FlightAware ADS-B
Tue 10:30:28 PM 45.7170 -118.5740 86° East 524 603 35,000  Level FlightAware ADS-B
Tue 10:31:04 PM 45.7240 -118.4490 85° East 524 603 35,000  Level FlightAware ADS-B
Tue 10:31:36 PM 45.7290 -118.3370 86° East 524 603 35,000  Level FlightAware ADS-B
Tue 10:32:12 PM 45.7350 -118.2120 86° East 524 603 35,000  Level FlightAware ADS-B
Tue 10:32:50 PM 45.7410 -118.0840 86° East 524 603 35,000  Level FlightAware ADS-B
Tue 10:33:22 PM 45.7460 -117.9740 86° East 524 603 35,000  Level FlightAware ADS-B
Tue 10:33:58 PM 45.7520 -117.8490 86° East 525 604 35,000  Level FlightAware ADS-B
Tue 10:34:34 PM 45.7570 -117.7220 87° East 524 603 35,000  Level FlightAware ADS-B
Tue 10:35:06 PM 45.7620 -117.6130 86° East 525 604 35,000  Level FlightAware ADS-B
Tue 10:35:42 PM 45.7670 -117.4880 87° East 527 606 35,000  Level FlightAware ADS-B
Tue 10:36:19 PM 45.7720 -117.3620 87° East 528 608 35,000  Level FlightAware ADS-B
Tue 10:36:54 PM 45.7770 -117.2360 87° East 528 608 35,000  Level FlightAware ADS-B
Tue 10:37:26 PM 45.7820 -117.1270 86° East 528 608 35,000  Level FlightAware ADS-B
Tue 10:38:02 PM 45.7860 -117.0050 87° East 527 606 35,000  Level FlightAware ADS-B
Tue 10:38:38 PM 45.7910 -116.8750 87° East 527 606 35,000  Level FlightAware ADS-B
Tue 10:39:14 PM 45.7950 -116.7490 87° East 529 609 35,000  Level FlightAware ADS-B
Tue 10:39:45 PM 45.7990 -116.6430 87° East 530 610 35,000  Level FlightAware ADS-B
Tue 10:40:23 PM 45.8030 -116.5090 88° East 532 612 35,000  Level FlightAware ADS-B
Tue 10:40:56 PM 45.8070 -116.3910 87° East 532 612 35,000  Level FlightAware ADS-B
Tue 10:41:34 PM 45.8110 -116.2580 87° East 532 612 35,000 81 Level FlightAware ADS-B
Tue 10:42:10 PM 45.8150 -116.1340 87° East 533 613 35,100 882 Climbing FlightAware ADS-B
Tue 10:42:42 PM 45.8180 -116.0190 88° East 529 609 36,000 1,676 Climbing FlightAware ADS-B
Tue 10:43:18 PM 45.8220 -115.8920 87° East 522 601 37,000 833 Climbing FlightAware ADS-B
Tue 10:43:54 PM 45.8250 -115.7690 88° East 521 600 37,000  Level FlightAware ADS-B
Tue 10:44:29 PM 45.8280 -115.6520 88° East 520 598 37,000  Level FlightAware ADS-B
Tue 10:45:02 PM 45.8310 -115.5370 88° East 521 600 37,000  Level FlightAware ADS-B
Tue 10:45:39 PM 45.8340 -115.4110 88° East 523 602 37,000  Level FlightAware ADS-B
Tue 10:46:33 PM 45.8380 -115.2390 88° East 524 603 37,000  Level FlightAware ADS-B
Tue 10:47:09 PM 45.8400 -115.1330 88° East 524 603 37,000  Level FlightAware ADS-B
Tue 10:47:45 PM 45.8430 -115.0260 88° East 524 603 37,000  Level FlightAware ADS-B
Tue 10:48:21 PM 45.8450 -114.9200 88° East 524 603 37,000  Level FlightAware ADS-B
Tue 10:48:57 PM 45.8480 -114.8130 88° East 524 603 37,000  Level FlightAware ADS-B
Tue 10:49:33 PM 45.8510 -114.7070 88° East 524 603 37,000  Level FlightAware ADS-B
Tue 10:50:09 PM 45.8530 -114.6000 88° East 524 603 37,000  Level FlightAware ADS-B
Tue 10:50:45 PM 45.8560 -114.4940 88° East 524 603 37,000  Level FlightAware ADS-B
Tue 10:51:21 PM 45.8580 -114.3870 88° East 524 603 37,000  Level FlightAware ADS-B
Tue 10:51:58 PM 45.8610 -114.2780 88° East 524 603 37,000  Level FlightAware ADS-B
Tue 10:52:34 PM 45.8630 -114.1720 88° East 524 603 37,000  Level FlightAware ADS-B
Tue 10:53:10 PM 45.8660 -114.0650 88° East 524 603 37,000  Level FlightAware ADS-B
Tue 10:53:46 PM 45.8690 -113.9590 88° East 524 603 37,000  Level FlightAware ADS-B
Tue 10:54:22 PM 45.8710 -113.8520 88° East 524 603 37,000  Level FlightAware ADS-B
Tue 10:54:58 PM 45.8740 -113.7460 88° East 524 603 37,000  Level FlightAware ADS-B
Tue 10:55:34 PM 45.8760 -113.6390 88° East 524 603 37,000  Level FlightAware ADS-B
Tue 10:56:26 PM 45.8592 -113.1908 88° East 522 601 37,000  Level Salt Lake Center
Tue 10:57:27 PM 45.8611 -112.9786 89° East 528 608 37,000  Level Salt Lake Center
Tue 10:58:29 PM 45.8622 -112.7692 89° East 528 608 37,000  Level Salt Lake Center
Tue 10:59:30 PM 45.8619 -112.5597 90° East 526 605 37,000  Level Salt Lake Center
Tue 11:00:32 PM 45.8611 -112.3078 90° East 526 605 37,000  Level Salt Lake Center
Tue 11:01:33 PM 45.8597 -112.1000 90° East 522 601 37,000  Level Salt Lake Center
Tue 11:02:35 PM 45.8606 -111.8900 90° East 525 604 37,000  Level Salt Lake Center
Tue 11:03:36 PM 45.8608 -111.6800 90° East 527 606 37,000  Level Salt Lake Center
Tue 11:04:38 PM 45.8597 -111.4697 90° East 526 605 37,000  Level Salt Lake Center
Tue 11:05:39 PM 45.8606 -111.2578 90° East 526 605 37,000  Level Salt Lake Center
Tue 11:06:41 PM 45.8583 -111.0303 91° East 533 613 37,000  Level Salt Lake Center
Tue 11:07:42 PM 45.8550 -110.8169 91° East 536 617 37,000  Level Salt Lake Center
Tue 11:08:43 PM 45.8525 -110.6031 91° East 536 617 37,000  Level Salt Lake Center
Tue 11:09:45 PM 45.8481 -110.3872 92° East 529 609 37,000  Level Salt Lake Center
Tue 11:10:46 PM 45.8453 -110.1717 91° East 538 619 37,000  Level Salt Lake Center
Tue 11:11:48 PM 45.8419 -109.9567 91° East 540 621 37,000  Level Salt Lake Center
Tue 11:12:49 PM 45.8389 -109.7422 91° East 539 620 37,000  Level Salt Lake Center
Tue 11:13:50 PM 45.8333 -109.5278 92° East 539 620 37,000  Level Salt Lake Center
Tue 11:14:52 PM 45.8286 -109.3161 92° East 533 613 37,000  Level Salt Lake Center
Tue 11:15:53 PM 45.8225 -109.1053 92° East 530 610 37,000  Level Salt Lake Center
Tue 11:16:54 PM 45.8156 -108.8514 92° East 532 612 37,000  Level Salt Lake Center
Tue 11:17:55 PM 45.8075 -108.6431 93° East 526 605 37,000 49 Level Salt Lake Center
Tue 11:18:57 PM 45.7914 -108.4300 96° East 534 615 37,100  Climbing Salt Lake Center
Tue 11:19:58 PM 45.7653 -108.2206 100° East 527 606 37,000 -49 Descending Salt Lake Center
Tue 11:20:59 PM 45.7425 -108.0136 99° East 524 603 37,000  Level Salt Lake Center
Tue 11:22:01 PM 45.7192 -107.8053 99° East 528 608 37,000  Level Salt Lake Center
Tue 11:23:02 PM 45.6958 -107.5969 99° East 530 610 37,000  Level Salt Lake Center
Tue 11:24:04 PM 45.6714 -107.3881 99° East 531 611 37,000  Level Salt Lake Center
Tue 11:25:04 PM 45.6469 -107.1794 99° East 531 611 37,000  Level Salt Lake Center
Tue 11:26:06 PM 45.6222 -106.9686 99° East 535 616 37,000  Level Salt Lake Center
Tue 11:27:07 PM 45.5950 -106.7608 101° East 534 615 37,000  Level Salt Lake Center
Tue 11:28:08 PM 45.5664 -106.5122 99° East 531 611 37,000  Level Salt Lake Center
Tue 11:29:09 PM 45.5406 -106.3056 100° East 530 610 37,000  Level Salt Lake Center
Tue 11:30:11 PM 45.5136 -106.0975 100° East 534 615 37,000  Level Salt Lake Center
Tue 11:31:12 PM 45.4792 -105.8936 103° East 532 612 37,000  Level Salt Lake Center
Tue 11:32:13 PM 45.4344 -105.6931 108° East 532 612 37,000  Level Salt Lake Center
Tue 11:33:14 PM 45.3903 -105.4953 108° East 529 609 37,000  Level Salt Lake Center
Tue 11:34:15 PM 45.3453 -105.2961 108° East 529 609 37,000  Level Salt Lake Center
Tue 11:35:17 PM 45.3003 -105.0972 108° East 530 610 37,000  Level Salt Lake Center
Tue 11:36:18 PM 45.2550 -104.8981 108° East 531 611 37,000  Level Salt Lake Center
Tue 11:37:19 PM 45.2097 -104.7000 108° East 531 611 37,000  Level Salt Lake Center
Tue 11:38:20 PM 45.1581 -104.4831 109° East 532 612 37,000  Level Salt Lake Center
Tue 11:39:21 PM 45.1139 -104.2917 108° East 534 615 37,000  Level Salt Lake Center
Tue 11:40:22 PM 45.0608 -104.0703 109° East 532 612 37,000  Level Salt Lake Center
Tue 11:41:24 PM 45.0150 -103.8792 109° East 534 615 37,000  Level Salt Lake Center
Tue 11:42:25 PM 44.9622 -103.6581 109° East 532 612 37,000  Level Salt Lake Center
Tue 11:43:26 PM 44.9167 -103.4689 109° East 533 613 37,000  Level Salt Lake Center
Tue 11:44:27 PM 44.8694 -103.2778 109° East 535 616 37,000  Level Salt Lake Center
Tue 11:45:05 PM 44.8406 -103.1694 111° Southeast 535 616 37,000  Level Denver Center
Tue 11:46:06 PM 44.7831 -102.9342 109° East 533 613 37,000  Level Denver Center
Tue 11:47:07 PM 44.7336 -102.7389 110° East 532 612 37,000  Level Denver Center
Tue 11:48:08 PM 44.6700 -102.5517 115° Southeast 533 613 37,000  Level Denver Center
Tue 11:49:09 PM 44.6036 -102.3717 117° Southeast 526 605 37,000  Level Denver Center
Tue 11:50:10 PM 44.5008 -102.2325 136° Southeast 524 603 37,000  Level Denver Center
Tue 11:51:11 PM 44.3886 -102.1061 141° Southeast 518 596 37,000  Level Denver Center
Tue 11:52:13 PM 44.2719 -101.9922 145° Southeast 517 595 37,000  Level Denver Center
Tue 11:53:14 PM 44.1550 -101.8747 144° Southeast 518 596 37,000  Level Denver Center
Tue 11:54:15 PM 44.0394 -101.7533 143° Southeast 520 598 37,000  Level Denver Center
Tue 11:55:15 PM 43.9497 -101.6589 143° Southeast 516 594 37,000  Level Denver Center
Tue 11:55:46 PM 43.8569 -101.5628 143° Southeast 518 596 37,000  Level Minneapolis Center
Tue 11:56:47 PM 43.7417 -101.4433 143° Southeast 519 597 37,000  Level Minneapolis Center
Tue 11:57:18 PM 43.6736 -101.3736 143° Southeast 520 598 37,000  Level Denver Center
Tue 11:57:48 PM 43.6258 -101.3256 144° Southeast 518 596 37,000  Level Minneapolis Center
Tue 11:58:19 PM 43.5561 -101.2578 145° Southeast 520 598 37,000  Level Denver Center
Tue 11:59:20 PM 43.4436 -101.1356 142° Southeast 518 596 37,000  Level Denver Center
Wed 12:00:21 AM 43.3661 -100.9681 122° Southeast 526 605 37,000  Level Denver Center
Wed 12:01:21 AM 43.3047 -100.7869 115° Southeast 524 603 37,000  Level Denver Center
Wed 12:02:20 AM 43.2439 -100.6036 114° Southeast 525 604 37,000  Level Minneapolis Center
Wed 12:03:21 AM 43.1828 -100.4233 115° Southeast 522 601 37,000  Level Minneapolis Center
Wed 12:04:22 AM 43.1222 -100.2497 115° Southeast 501 577 37,000 50 Level Minneapolis Center
Wed 12:05:22 AM 43.0628 -100.0797 116° Southeast 497 572 37,100  Climbing Minneapolis Center
Wed 12:06:23 AM 43.0033 -99.9100 116° Southeast 496 571 37,000 -48 Descending Minneapolis Center
Wed 12:07:27 AM 42.9436 -99.7425 116° Southeast 497 572 37,000  Level Denver Center
Wed 12:08:28 AM 42.8800 -99.5650 116° Southeast 514 592 37,000  Level Denver Center
Wed 12:09:25 AM 42.8175 -99.3883 116° Southeast 519 597 37,000  Level Minneapolis Center
Wed 12:10:26 AM 42.7664 -99.2464 116° Southeast 521 600 37,000  Level Minneapolis Center
Wed 12:11:26 AM 42.6889 -99.0333 116° Southeast 523 602 37,000  Level Minneapolis Center
Wed 12:12:27 AM 42.6242 -98.8558 116° Southeast 524 603 37,000  Level Minneapolis Center
Wed 12:13:28 AM 42.5592 -98.6783 116° Southeast 524 603 37,000  Level Minneapolis Center
Wed 12:19:18 AM 42.1680 -97.6360 116° Southeast 515 593 37,000  Level FlightAware ADS-B
Wed 12:19:58 AM 42.1310 -97.5390 117° Southeast 515 593 37,000  Level FlightAware ADS-B
Wed 12:20:34 AM 42.0980 -97.4510 117° Southeast 515 593 37,000  Level FlightAware ADS-B
Wed 12:21:06 AM 42.0540 -97.3400 118° Southeast 514 592 37,000  Level FlightAware ADS-B
Wed 12:21:41 AM 42.0100 -97.2250 117° Southeast 515 593 37,000  Level FlightAware ADS-B
Wed 12:22:18 AM 41.9710 -97.1270 118° Southeast 514 592 37,000  Level FlightAware ADS-B
Wed 12:22:53 AM 41.9300 -97.0210 117° Southeast 513 590 37,000  Level FlightAware ADS-B
Wed 12:23:26 AM 41.8940 -96.9300 118° Southeast 513 590 37,000  Level FlightAware ADS-B
Wed 12:24:02 AM 41.8540 -96.8270 118° Southeast 514 592 37,000  Level FlightAware ADS-B
Wed 12:24:46 AM 41.8060 -96.7060 118° Southeast 515 593 37,000  Level FlightAware ADS-B
Wed 12:25:16 AM 41.7740 -96.6250 118° Southeast 517 595 37,000  Level FlightAware ADS-B
Wed 12:25:54 AM 41.7320 -96.5180 118° Southeast 518 596 37,000  Level FlightAware ADS-B
Wed 12:26:30 AM 41.6890 -96.4110 118° Southeast 518 596 37,000  Level FlightAware ADS-B
Wed 12:27:01 AM 41.6550 -96.3250 118° Southeast 518 596 37,000  Level FlightAware ADS-B
Wed 12:27:39 AM 41.6110 -96.2150 118° Southeast 518 596 37,000  Level FlightAware ADS-B
Wed 12:28:14 AM 41.5730 -96.1200 118° Southeast 517 595 37,000  Level FlightAware ADS-B
Wed 12:28:51 AM 41.5300 -96.0140 118° Southeast 516 594 37,000  Level FlightAware ADS-B
Wed 12:29:22 AM 41.4950 -95.9290 119° Southeast 515 593 37,000  Level FlightAware ADS-B
Wed 12:29:58 AM 41.4550 -95.8290 118° Southeast 514 592 37,000  Level FlightAware ADS-B
Wed 12:30:34 AM 41.4130 -95.7270 119° Southeast 514 592 37,000  Level FlightAware ADS-B
Wed 12:31:10 AM 41.3740 -95.6310 118° Southeast 515 593 37,000  Level FlightAware ADS-B
Wed 12:31:41 AM 41.3360 -95.5400 119° Southeast 515 593 37,000  Level FlightAware ADS-B
Wed 12:32:19 AM 41.2940 -95.4360 118° Southeast 515 593 37,000  Level FlightAware ADS-B
Wed 12:32:56 AM 41.2520 -95.3340 119° Southeast 513 590 37,000  Level FlightAware ADS-B
Wed 12:33:28 AM 41.2150 -95.2460 119° Southeast 512 589 37,000  Level FlightAware ADS-B
Wed 12:34:03 AM 41.1770 -95.1550 119° Southeast 511 588 37,000  Level FlightAware ADS-B
Wed 12:34:40 AM 41.1330 -95.0490 119° Southeast 510 587 37,000  Level FlightAware ADS-B
Wed 12:35:16 AM 41.0920 -94.9510 119° Southeast 509 586 37,000  Level FlightAware ADS-B
Wed 12:35:56 AM 41.0470 -94.8430 119° Southeast 508 585 37,000  Level FlightAware ADS-B
Wed 12:36:33 AM 41.0050 -94.7430 119° Southeast 508 585 37,000  Level FlightAware ADS-B
Wed 12:37:00 AM 40.9740 -94.6710 120° Southeast 509 586 37,000  Level FlightAware ADS-B
Wed 12:37:39 AM 40.9280 -94.5620 119° Southeast 509 586 37,000  Level FlightAware ADS-B
Wed 12:38:23 AM 40.8850 -94.4600 119° Southeast 509 586 37,000  Level FlightAware ADS-B
Wed 12:38:57 AM 40.8380 -94.3510 120° Southeast 507 583 37,000  Level FlightAware ADS-B
Wed 12:39:33 AM 40.7960 -94.2530 119° Southeast 506 582 37,000  Level FlightAware ADS-B
Wed 12:40:09 AM 40.7560 -94.1590 119° Southeast 505 581 37,000  Level FlightAware ADS-B
Wed 12:40:42 AM 40.7170 -94.0700 120° Southeast 505 581 37,000  Level FlightAware ADS-B
Wed 12:41:17 AM 40.6770 -93.9770 120° Southeast 505 581 37,000  Level FlightAware ADS-B
Wed 12:41:53 AM 40.6350 -93.8790 119° Southeast 505 581 37,000  Level FlightAware ADS-B
Wed 12:42:42 AM 40.5790 -93.7510 120° Southeast 504 580 37,000  Level FlightAware ADS-B
Wed 12:43:19 AM 40.5350 -93.6500 120° Southeast 503 579 37,000  Level FlightAware ADS-B
Wed 12:43:50 AM 40.5000 -93.5700 120° Southeast 503 579 37,000  Level FlightAware ADS-B
Wed 12:44:25 AM 40.4620 -93.4840 120° Southeast 503 579 37,000  Level FlightAware ADS-B
Wed 12:45:03 AM 40.4140 -93.3760 120° Southeast 502 578 37,000  Level FlightAware ADS-B
Wed 12:45:33 AM 40.3800 -93.2980 120° Southeast 503 579 37,000  Level FlightAware ADS-B
Wed 12:46:11 AM 40.3360 -93.1980 120° Southeast 504 580 37,000  Level FlightAware ADS-B
Wed 12:46:47 AM 40.2940 -93.1050 121° Southeast 504 580 37,000  Level FlightAware ADS-B
Wed 12:47:20 AM 40.2550 -93.0160 120° Southeast 505 581 37,000  Level FlightAware ADS-B
Wed 12:47:56 AM 40.2120 -92.9210 121° Southeast 506 582 37,000  Level FlightAware ADS-B
Wed 12:48:31 AM 40.1700 -92.8280 121° Southeast 506 582 37,000  Level FlightAware ADS-B
Wed 12:49:05 AM 40.1310 -92.7400 120° Southeast 506 582 37,000  Level FlightAware ADS-B
Wed 12:49:42 AM 40.0860 -92.6420 121° Southeast 506 582 37,000  Level FlightAware ADS-B
Wed 12:50:15 AM 40.0480 -92.5590 121° Southeast 507 583 37,000  Level FlightAware ADS-B
Wed 12:50:53 AM 40.0010 -92.4550 121° Southeast 507 583 37,000  Level FlightAware ADS-B
Wed 12:51:25 AM 39.9640 -92.3740 121° Southeast 507 583 37,000  Level FlightAware ADS-B
Wed 12:52:02 AM 39.9190 -92.2750 121° Southeast 509 586 37,000  Level FlightAware ADS-B
Wed 12:52:38 AM 39.8750 -92.1770 120° Southeast 509 586 37,000  Level FlightAware ADS-B
Wed 12:53:15 AM 39.8300 -92.0820 122° Southeast 511 588 37,000  Level FlightAware ADS-B
Wed 12:53:46 AM 39.7950 -92.0040 120° Southeast 511 588 37,000  Level FlightAware ADS-B
Wed 12:54:24 AM 39.7460 -91.8990 121° Southeast 513 590 37,000  Level FlightAware ADS-B
Wed 12:54:57 AM 39.7060 -91.8130 121° Southeast 513 590 37,000  Level FlightAware ADS-B
Wed 12:55:32 AM 39.6640 -91.7220 121° Southeast 513 590 37,000  Level FlightAware ADS-B
Wed 12:56:08 AM 39.6190 -91.6250 121° Southeast 512 589 37,000  Level FlightAware ADS-B
Wed 12:56:41 AM 39.5810 -91.5390 120° Southeast 510 587 37,000  Level FlightAware ADS-B
Wed 12:57:16 AM 39.5450 -91.4430 116° Southeast 509 586 37,000  Level FlightAware ADS-B
Wed 12:57:54 AM 39.5070 -91.3370 115° Southeast 508 585 37,000  Level FlightAware ADS-B
Wed 12:58:27 AM 39.4770 -91.2490 114° Southeast 508 585 37,000  Level FlightAware ADS-B
Wed 12:59:00 AM 39.4450 -91.1550 114° Southeast 508 585 37,000  Level FlightAware ADS-B
Wed 12:59:39 AM 39.4080 -91.0480 114° Southeast 507 583 37,000  Level FlightAware ADS-B
Wed 01:00:14 AM 39.3740 -90.9490 114° Southeast 506 582 37,000  Level FlightAware ADS-B
Wed 01:00:50 AM 39.3400 -90.8520 114° Southeast 506 582 37,000  Level FlightAware ADS-B
Wed 01:01:22 AM 39.3120 -90.7700 114° Southeast 507 583 37,000  Level FlightAware ADS-B
Wed 01:01:56 AM 39.2760 -90.6680 114° Southeast 509 586 37,000  Level FlightAware ADS-B
Wed 01:02:34 AM 39.2400 -90.5640 114° Southeast 510 587 37,000  Level FlightAware ADS-B
Wed 01:03:09 AM 39.2060 -90.4670 114° Southeast 511 588 37,000  Level FlightAware ADS-B
Wed 01:03:42 AM 39.1730 -90.3750 115° Southeast 511 588 37,000  Level FlightAware ADS-B
Wed 01:04:11 AM 39.1460 -90.2980 114° Southeast 511 588 37,000  Level FlightAware ADS-B
Wed 01:04:50 AM 39.1070 -90.1880 115° Southeast 510 587 37,000  Level FlightAware ADS-B
Wed 01:05:30 AM 39.0680 -90.0780 115° Southeast 510 587 37,000  Level FlightAware ADS-B
Wed 01:06:02 AM 39.0360 -89.9890 115° Southeast 511 588 37,000  Level FlightAware ADS-B
Wed 01:06:36 AM 39.0020 -89.8940 115° Southeast 512 589 37,000  Level FlightAware ADS-B
Wed 01:07:15 AM 38.9630 -89.7860 115° Southeast 512 589 37,000  Level FlightAware ADS-B
Wed 01:07:46 AM 38.9350 -89.7080 115° Southeast 512 589 37,000  Level FlightAware ADS-B
Wed 01:08:22 AM 38.8970 -89.6030 115° Southeast 513 590 37,000  Level FlightAware ADS-B
Wed 01:09:00 AM 38.8620 -89.4970 113° Southeast 510 587 37,000  Level FlightAware ADS-B
Wed 01:09:32 AM 38.8400 -89.4060 107° East 507 583 37,000  Level FlightAware ADS-B
Wed 01:10:08 AM 38.8200 -89.3040 104° East 507 583 37,000  Level FlightAware ADS-B
Wed 01:10:44 AM 38.7980 -89.1990 105° East 508 585 37,000  Level FlightAware ADS-B
Wed 01:11:20 AM 38.7770 -89.0940 104° East 507 583 37,000  Level FlightAware ADS-B
Wed 01:11:52 AM 38.7590 -89.0020 104° East 508 585 37,000  Level FlightAware ADS-B
Wed 01:12:28 AM 38.7370 -88.8960 105° East 507 583 37,000  Level FlightAware ADS-B
Wed 01:13:04 AM 38.7160 -88.7900 104° East 507 583 37,000  Level FlightAware ADS-B
Wed 01:13:35 AM 38.6980 -88.6990 104° East 508 585 37,000  Level FlightAware ADS-B
Wed 01:14:11 AM 38.6760 -88.5930 105° East 510 587 37,000  Level FlightAware ADS-B
Wed 01:14:48 AM 38.6540 -88.4870 105° East 512 589 37,000  Level FlightAware ADS-B
Wed 01:15:23 AM 38.6330 -88.3840 105° East 512 589 37,000  Level FlightAware ADS-B
Wed 01:15:59 AM 38.6120 -88.2810 105° East 512 589 37,000  Level FlightAware ADS-B
Wed 01:16:32 AM 38.5930 -88.1890 105° East 512 589 37,000 -91 Level FlightAware ADS-B
Wed 01:17:05 AM 38.5730 -88.0940 105° East 510 587 36,900 -1,315 Descending FlightAware ADS-B
Wed 01:17:45 AM 38.5480 -87.9730 105° East 498 573 35,400 -2,667 Descending FlightAware ADS-B
Wed 01:18:17 AM 38.5280 -87.8820 106° East 500 575 33,700 -3,176 Descending FlightAware ADS-B
Wed 01:18:53 AM 38.5070 -87.7800 105° East 495 570 31,800 -3,583 Descending FlightAware ADS-B
Wed 01:19:29 AM 38.4850 -87.6790 106° East 486 559 29,400 -4,583 Descending FlightAware ADS-B
Wed 01:20:05 AM 38.4640 -87.5800 105° East 495 570 26,300 -4,567 Descending FlightAware ADS-B
Wed 01:20:36 AM 38.4450 -87.4920 105° East 493 567 24,300 -3,493 Descending FlightAware ADS-B
Wed 01:21:12 AM 38.4240 -87.3920 105° East 480 552 22,400 -3,088 Descending FlightAware ADS-B
Wed 01:21:44 AM 38.4050 -87.3070 106° East 470 541 20,800 -3,000 Descending FlightAware ADS-B
Wed 01:22:22 AM 38.3830 -87.2070 106° East 456 525 18,900 -3,000 Descending FlightAware ADS-B
Wed 01:22:58 AM 38.3630 -87.1140 105° East 442 509 17,100 -3,083 Descending FlightAware ADS-B
Wed 01:23:34 AM 38.3440 -87.0250 105° East 435 501 15,200 -2,559 Descending FlightAware ADS-B
Wed 01:24:06 AM 38.3270 -86.9480 106° East 415 478 14,200 -2,118 Descending FlightAware ADS-B
Wed 01:24:42 AM 38.3090 -86.8670 106° East 403 464 12,800 -2,486 Descending FlightAware ADS-B
Wed 01:25:16 AM 38.2920 -86.7910 106° East 396 456 11,300 -1,727 Descending FlightAware ADS-B
Wed 01:25:48 AM 38.2760 -86.7200 106° East 396 456 10,900 -457 Descending FlightAware ADS-B
Wed 01:26:48 AM 38.2490 -86.5940 105° East 395 455 10,600 -511 Descending FlightAware ADS-B
Wed 01:27:22 AM 38.2300 -86.5080 106° East 390 449 10,100 -778 Descending FlightAware ADS-B
Wed 01:27:42 AM 38.2230 -86.4610 101° East 388 447 9,900 -277 Descending FlightAware ADS-B
Wed 01:28:27 AM 38.2110 -86.3670 99° East 372 428 9,800 -91 Descending FlightAware ADS-B
Wed 01:28:48 AM 38.2050 -86.3220 100° East 335 386 9,800  Level FlightAware ADS-B
Wed 01:29:06 AM 38.2010 -86.2900 99° East 313 360 9,800 -714 Level FlightAware ADS-B
Wed 01:29:30 AM 38.1950 -86.2480 100° East 283 326 9,300 -1,435 Descending FlightAware ADS-B
Wed 01:29:52 AM 38.1900 -86.2110 100° East 284 327 8,700 -1,765 Descending FlightAware ADS-B
Wed 01:30:04 AM 38.1870 -86.1910 101° East 283 326 8,300 -1,688 Descending FlightAware ADS-B
Wed 01:30:24 AM 38.1830 -86.1600 99° East 280 322 7,800 -1,773 Descending FlightAware ADS-B
Wed 01:30:48 AM 38.1780 -86.1200 99° East 280 322 7,000 -1,909 Descending FlightAware ADS-B
Wed 01:31:08 AM 38.1730 -86.0880 101° East 278 320 6,400 -1,714 Descending FlightAware ADS-B
Wed 01:31:16 AM 38.1670 -86.0760 122° Southeast 276 318 6,200 -1,333 Descending FlightAware ADS-B
Wed 01:31:26 AM 38.1600 -86.0630 124° Southeast 274 315 6,000 -1,313 Descending FlightAware ADS-B
Wed 01:31:48 AM 38.1440 -86.0360 127° Southeast 273 314 5,500 -1,263 Descending FlightAware ADS-B
Wed 01:32:04 AM 38.1320 -86.0150 126° Southeast 270 311 5,200 -1,333 Descending FlightAware ADS-B
Wed 01:32:24 AM 38.1160 -85.9880 127° Southeast 268 308 4,700 -1,350 Descending FlightAware ADS-B
Wed 01:32:44 AM 38.1020 -85.9640 127° Southeast 267 307 4,300 -1,286 Descending FlightAware ADS-B
Wed 01:33:06 AM 38.0860 -85.9360 126° Southeast 265 305 3,800 -789 Descending FlightAware ADS-B
Wed 01:33:22 AM 38.0760 -85.9180 125° Southeast 256 295 3,800  Level FlightAware ADS-B
Wed 01:33:42 AM 38.0600 -85.8920 128° Southeast 249 287 3,800  Level FlightAware ADS-B
Wed 01:34:02 AM 38.0480 -85.8710 126° Southeast 235 270 3,800  Level FlightAware ADS-B
Wed 01:34:26 AM 38.0330 -85.8430 124° Southeast 235 270 3,800  Level FlightAware ADS-B
Wed 01:34:38 AM 38.0250 -85.8290 126° Southeast 226 260 3,800  Level FlightAware ADS-B
Wed 01:34:57 AM 38.0140 -85.8090 125° Southeast 225 259 3,800  Level FlightAware ADS-B
Wed 01:35:14 AM 38.0060 -85.7890 117° Southeast 228 262 3,800  Level FlightAware ADS-B
Wed 01:35:22 AM 38.0050 -85.7790 97° East 224 258 3,800 -600 Level FlightAware ADS-B
Wed 01:35:34 AM 38.0080 -85.7630 77° East 222 255 3,600 -857 Descending FlightAware ADS-B
Wed 01:35:50 AM 38.0140 -85.7430 69° East 221 254 3,400 -900 Descending FlightAware ADS-B
Wed 01:35:54 AM 38.0160 -85.7390 58° Northeast 220 253 3,300 -500 Descending FlightAware ADS-B
Wed 01:36:02 AM 38.0210 -85.7330 43° Northeast 214 246 3,300 -375 Level FlightAware ADS-B
Wed 01:36:10 AM 38.0290 -85.7280 26° Northeast 209 241 3,200 -857 Descending FlightAware ADS-B
Wed 01:36:30 AM 38.0460 -85.7220 16° North 193 222 2,900 -1,050 Descending FlightAware ADS-B
Wed 01:36:50 AM 38.0620 -85.7160 16° North 179 206 2,500 -1,500 Descending FlightAware ADS-B
Wed 01:36:58 AM 38.0700 -85.7140 11° North 179 206 2,200 -1,875 Descending FlightAware ADS-B
Wed 01:37:06 AM 38.0760 -85.7140 360° North 175 201 2,000 -1,200 Descending FlightAware ADS-B
Wed 01:37:28 AM 38.0930 -85.7170 352° North 157 181 1,600 -882 Descending FlightAware ADS-B
Wed 01:37:40 AM 38.1000 -85.7200 341° North 153 176 1,500 -750 Descending FlightAware ADS-B
Wed 01:38:00 AM 38.1140 -85.7250 344° North 152 175 1,200 -900 Descending FlightAware ADS-B
Wed 01:38:20 AM 38.1270 -85.7290 346° North 147 169 900 -833 Descending FlightAware ADS-B
Wed 01:38:36 AM 38.1380 -85.7330 344° North 144 166 700 -667 Descending FlightAware ADS-B
Wed 01:38:56 AM 38.1510 -85.7370 346° North 146 168 500 -600 Descending FlightAware ADS-B

Login

Don't have an account? Register now (free) for customized features, flight alerts, and more!